createdAt,value
2018-04-02T00:01:47.061Z,90.46
2018-04-02T00:04:15.135Z,90.77
2018-04-02T00:06:42.738Z,90.92
2018-04-02T00:09:10.387Z,90.81
2018-04-02T00:11:38.021Z,91.27
2018-04-02T00:14:06.191Z,91.66
2018-04-02T00:16:33.847Z,92.17
2018-04-02T00:19:01.432Z,92.73
2018-04-02T00:21:29.093Z,92.99
2018-04-02T00:23:56.801Z,92.32
2018-04-02T00:26:24.952Z,92.08
2018-04-02T00:28:52.576Z,92.11
2018-04-02T00:31:20.281Z,92.61
2018-04-02T00:33:47.934Z,92.97
2018-04-02T00:36:15.652Z,92.61
2018-04-02T00:38:43.309Z,93.19
2018-04-02T00:41:10.968Z,93.29
2018-04-02T00:43:38.578Z,92.39
2018-04-02T00:46:06.227Z,92.17
2018-04-02T00:48:33.822Z,91.08
2018-04-02T00:51:01.466Z,90.92
2018-04-02T00:53:29.162Z,90.43
2018-04-02T00:55:56.812Z,90.49
2018-04-02T00:58:25.198Z,90.45
2018-04-02T01:00:52.851Z,89.88
2018-04-02T01:03:20.479Z,90.49
2018-04-02T01:05:48.123Z,90.52
2018-04-02T01:08:16.217Z,90.71
2018-04-02T01:10:43.962Z,91.70
2018-04-02T01:13:11.595Z,91.23
2018-04-02T01:15:39.182Z,91.07
2018-04-02T01:18:06.854Z,91.16
2018-04-02T01:20:34.485Z,91.56
2018-04-02T01:23:02.780Z,92.11
2018-04-02T01:25:30.486Z,92.34
2018-04-02T01:27:58.136Z,92.42
2018-04-02T01:30:25.713Z,92.62
2018-04-02T01:32:53.331Z,92.41
2018-04-02T01:35:20.910Z,92.36
2018-04-02T01:37:48.528Z,92.54
2018-04-02T01:40:16.173Z,92.45
2018-04-02T01:42:43.785Z,92.25
2018-04-02T01:45:11.441Z,91.93
2018-04-02T01:47:39.087Z,92.52
2018-04-02T01:50:06.703Z,92.93
2018-04-02T01:52:34.396Z,92.93
2018-04-02T01:55:01.988Z,93.19
2018-04-02T01:57:29.614Z,93.21
2018-04-02T01:59:57.210Z,93.65
2018-04-02T02:02:24.894Z,93.92
2018-04-02T02:04:52.481Z,94.45
2018-04-02T02:07:20.151Z,93.71
2018-04-02T02:09:47.745Z,93.35
2018-04-02T02:12:15.330Z,93.32
2018-04-02T02:14:42.983Z,92.71
2018-04-02T02:17:10.569Z,92.41
2018-04-02T02:19:38.197Z,93.21
2018-04-02T02:22:05.898Z,93.43
2018-04-02T02:24:33.532Z,93.56
2018-04-02T02:27:01.178Z,93.52
2018-04-02T02:29:28.829Z,93.11
2018-04-02T02:31:56.406Z,91.80
2018-04-02T02:34:24.276Z,91.56
2018-04-02T02:36:51.911Z,91.71
2018-04-02T02:39:19.659Z,91.11
2018-04-02T02:41:47.282Z,91.08
2018-04-02T02:44:14.919Z,91.36
2018-04-02T02:46:42.558Z,91.37
2018-04-02T02:49:10.174Z,91.80
2018-04-02T02:51:37.804Z,91.30
2018-04-02T02:54:05.406Z,91.25
2018-04-02T02:56:33.046Z,90.73
2018-04-02T02:59:00.634Z,90.67
2018-04-02T03:01:28.245Z,91.89
2018-04-02T03:03:55.884Z,92.75
2018-04-02T03:06:23.475Z,92.03
2018-04-02T03:08:51.130Z,92.04
2018-04-02T03:11:18.754Z,92.02
2018-04-02T03:13:46.423Z,92.28
2018-04-02T03:16:13.997Z,92.84
2018-04-02T03:18:41.673Z,92.95
2018-04-02T03:21:09.454Z,93.11
2018-04-02T03:23:37.108Z,93.20
2018-04-02T03:26:04.737Z,93.11
2018-04-02T03:28:32.338Z,92.89
2018-04-02T03:31:00.005Z,92.68
2018-04-02T03:33:27.668Z,92.52
2018-04-02T03:35:55.294Z,92.80
2018-04-02T03:38:23.050Z,92.97
2018-04-02T03:40:50.684Z,93.16
2018-04-02T03:43:18.314Z,93.13
2018-04-02T03:45:45.952Z,93.42
2018-04-02T03:48:13.636Z,93.36
2018-04-02T03:50:41.283Z,93.13
2018-04-02T03:53:08.895Z,93.00
2018-04-02T03:55:36.572Z,92.85
2018-04-02T03:58:04.182Z,92.83
2018-04-02T04:00:31.846Z,93.14
2018-04-02T04:02:59.508Z,93.79
2018-04-02T04:05:27.126Z,93.67
2018-04-02T04:07:55.100Z,93.45
2018-04-02T04:10:22.779Z,92.99
2018-04-02T04:12:50.434Z,92.93
2018-04-02T04:15:18.099Z,92.89
2018-04-02T04:17:45.672Z,93.03
2018-04-02T04:20:13.316Z,93.05
2018-04-02T04:22:40.951Z,92.92
2018-04-02T04:25:08.551Z,93.05
2018-04-02T04:27:36.334Z,93.10
2018-04-02T04:30:04.003Z,93.25
2018-04-02T04:32:31.644Z,93.26
2018-04-02T04:34:59.222Z,93.18
2018-04-02T04:37:26.889Z,92.56
2018-04-02T04:39:54.543Z,92.69
2018-04-02T04:42:22.122Z,92.50
2018-04-02T04:44:49.719Z,92.90
2018-04-02T04:47:18.615Z,93.16
2018-04-02T04:49:46.209Z,93.28
2018-04-02T04:52:13.816Z,93.42
2018-04-02T04:54:41.452Z,93.33
2018-04-02T04:57:10.070Z,92.97
2018-04-02T04:59:38.744Z,93.23
2018-04-02T05:02:06.410Z,93.38
2018-04-02T05:04:34.096Z,93.56
2018-04-02T05:07:01.788Z,93.37
2018-04-02T05:09:29.385Z,93.11
2018-04-02T05:11:57.066Z,92.96
2018-04-02T05:14:25.399Z,92.95
2018-04-02T05:16:53.070Z,92.61
2018-04-02T05:19:20.936Z,92.75
2018-04-02T05:21:48.610Z,92.63
2018-04-02T05:24:16.193Z,92.38
2018-04-02T05:26:43.848Z,87.31
2018-04-02T05:29:11.439Z,78.86
2018-04-02T05:31:39.053Z,73.07
2018-04-02T05:34:06.697Z,72.49
2018-04-02T05:36:34.274Z,70.18
2018-04-02T05:39:02.358Z,70.71
2018-04-02T05:41:30.052Z,71.04
2018-04-02T05:43:57.704Z,74.23
2018-04-02T05:46:25.392Z,78.15
2018-04-02T05:48:53.195Z,81.03
2018-04-02T05:51:20.808Z,82.36
2018-04-02T05:53:48.487Z,82.95
2018-04-02T05:56:16.095Z,83.41
2018-04-02T05:58:43.715Z,83.79
2018-04-02T06:01:11.378Z,83.78
2018-04-02T06:03:39.080Z,83.49
2018-04-02T06:06:06.704Z,84.04
2018-04-02T06:08:34.370Z,83.56
2018-04-02T06:11:01.960Z,82.31
2018-04-02T06:13:29.859Z,80.49
2018-04-02T06:15:57.471Z,81.52
2018-04-02T06:18:25.162Z,82.88
2018-04-02T06:20:53.107Z,81.75
2018-04-02T06:23:20.761Z,79.07
2018-04-02T06:25:48.375Z,79.94
2018-04-02T06:28:16.036Z,80.10
2018-04-02T06:30:44.903Z,80.07
2018-04-02T06:33:12.638Z,80.07
2018-04-02T06:35:40.301Z,78.00
2018-04-02T06:38:08.179Z,78.15
2018-04-02T06:40:35.841Z,78.20
2018-04-02T06:43:03.458Z,76.70
2018-04-02T06:45:31.137Z,74.11
2018-04-02T06:47:59.131Z,74.02
2018-04-02T06:50:26.791Z,69.27
2018-04-02T06:52:54.490Z,70.05
2018-04-02T06:55:22.095Z,70.94
2018-04-02T06:57:49.988Z,70.09
2018-04-02T07:00:18.897Z,72.13
2018-04-02T07:02:46.505Z,72.14
2018-04-02T07:05:14.257Z,70.98
2018-04-02T07:07:42.046Z,73.29
2018-04-02T07:10:09.657Z,69.81
2018-04-02T07:12:37.307Z,66.60
2018-04-02T07:15:05.346Z,69.38
2018-04-02T07:17:33.119Z,65.39
2018-04-02T07:20:00.810Z,63.81
2018-04-02T07:22:28.538Z,65.68
2018-04-02T07:24:56.208Z,68.91
2018-04-02T07:27:23.871Z,65.06
2018-04-02T07:29:52.353Z,64.87
2018-04-02T07:32:20.222Z,68.07
2018-04-02T07:34:49.011Z,66.02
2018-04-02T07:37:16.779Z,67.10
2018-04-02T07:39:44.572Z,69.39
2018-04-02T07:42:12.198Z,64.85
2018-04-02T07:44:40.069Z,69.40
2018-04-02T07:47:07.806Z,69.15
2018-04-02T07:49:35.511Z,66.29
2018-04-02T07:52:04.371Z,67.36
2018-04-02T07:54:32.984Z,64.77
2018-04-02T07:57:01.042Z,63.86
2018-04-02T07:59:28.708Z,66.95
2018-04-02T08:01:56.453Z,66.56
2018-04-02T08:04:24.280Z,64.07
2018-04-02T08:06:51.902Z,66.07
2018-04-02T08:09:19.573Z,65.38
2018-04-02T08:11:47.524Z,65.07
2018-04-02T08:14:16.276Z,62.96
2018-04-02T08:16:44.285Z,60.96
2018-04-02T08:19:12.147Z,63.95
2018-04-02T08:21:39.802Z,60.58
2018-04-02T08:24:07.457Z,60.88
2018-04-02T08:26:35.157Z,61.64
2018-04-02T08:29:02.817Z,60.51
2018-04-02T08:31:30.467Z,62.37
2018-04-02T08:33:58.252Z,57.50
2018-04-02T08:36:25.930Z,59.11
2018-04-02T08:38:53.679Z,56.74
2018-04-02T08:41:21.318Z,58.35
2018-04-02T08:43:49.014Z,57.10
2018-04-02T08:46:16.678Z,56.17
2018-04-02T08:48:44.379Z,48.83
2018-04-02T08:51:12.112Z,57.71
2018-04-02T08:53:39.784Z,59.82
2018-04-02T08:56:07.454Z,57.62
2018-04-02T08:58:36.143Z,59.36
2018-04-02T09:01:03.797Z,58.14
2018-04-02T09:03:31.527Z,58.03
2018-04-02T09:06:00.472Z,55.50
2018-04-02T09:08:28.254Z,54.41
2018-04-02T09:10:56.004Z,51.32
2018-04-02T09:13:23.674Z,57.00
2018-04-02T09:15:51.674Z,55.63
2018-04-02T09:18:19.356Z,57.07
2018-04-02T09:20:47.860Z,52.42
2018-04-02T09:23:15.576Z,52.13
2018-04-02T09:25:43.550Z,50.63
2018-04-02T09:28:11.235Z,53.72
2018-04-02T09:30:38.988Z,51.92
2018-04-02T09:33:06.595Z,52.79
2018-04-02T09:35:34.304Z,54.01
2018-04-02T09:38:01.971Z,51.61
2018-04-02T09:40:29.654Z,49.12
2018-04-02T09:42:57.281Z,48.48
2018-04-02T09:45:24.976Z,49.17
2018-04-02T09:47:52.646Z,47.80
2018-04-02T09:50:20.374Z,49.32
2018-04-02T09:52:48.006Z,49.63
2018-04-02T09:55:15.706Z,48.87
2018-04-02T09:57:43.335Z,48.18
2018-04-02T10:00:11.001Z,50.20
2018-04-02T10:02:38.697Z,48.15
2018-04-02T10:05:06.489Z,43.94
2018-04-02T10:07:34.111Z,43.55
2018-04-02T10:10:01.919Z,46.49
2018-04-02T10:12:29.537Z,46.69
2018-04-02T10:14:57.592Z,46.13
2018-04-02T10:17:25.383Z,43.81
2018-04-02T10:19:53.090Z,44.02
2018-04-02T10:22:20.891Z,45.71
2018-04-02T10:24:48.543Z,43.87
2018-04-02T10:27:16.171Z,43.23
2018-04-02T10:29:43.894Z,46.06
2018-04-02T10:32:11.495Z,44.18
2018-04-02T10:34:39.576Z,44.64
2018-04-02T10:37:08.619Z,42.75
2018-04-02T10:39:36.288Z,43.17
2018-04-02T10:42:03.975Z,41.29
2018-04-02T10:44:31.640Z,42.35
2018-04-02T10:46:59.274Z,41.66
2018-04-02T10:49:27.003Z,42.53
2018-04-02T10:51:54.622Z,40.83
2018-04-02T10:54:22.303Z,41.98
2018-04-02T10:56:49.960Z,41.95
2018-04-02T10:59:17.636Z,39.66
2018-04-02T11:01:45.288Z,41.78
2018-04-02T11:04:12.957Z,37.50
2018-04-02T11:06:40.583Z,40.08
2018-04-02T11:09:08.762Z,39.61
2018-04-02T11:11:36.498Z,40.74
2018-04-02T11:14:04.107Z,40.29
2018-04-02T11:16:31.829Z,37.92
2018-04-02T11:18:59.478Z,36.28
2018-04-02T11:21:27.138Z,41.37
2018-04-02T11:23:54.821Z,41.22
2018-04-02T11:26:22.491Z,38.51
2018-04-02T11:28:50.196Z,39.10
2018-04-02T11:31:17.864Z,38.07
2018-04-02T11:33:45.528Z,39.10
2018-04-02T11:36:13.437Z,34.66
2018-04-02T11:38:41.096Z,39.79
2018-04-02T11:41:08.810Z,36.46
2018-04-02T11:43:36.438Z,34.72
2018-04-02T11:46:04.104Z,29.96
2018-04-02T11:48:31.802Z,36.60
2018-04-02T11:50:59.578Z,36.85
2018-04-02T11:53:27.182Z,37.19
2018-04-02T11:55:54.845Z,38.43
2018-04-02T11:58:22.543Z,37.24
2018-04-02T12:00:50.247Z,37.80
2018-04-02T12:03:17.859Z,36.44
2018-04-02T12:05:45.519Z,36.45
2018-04-02T12:08:13.194Z,36.52
2018-04-02T12:10:40.856Z,36.01
2018-04-02T12:13:08.525Z,35.66
2018-04-02T12:15:36.141Z,32.33
2018-04-02T12:18:03.765Z,34.11
2018-04-02T12:20:31.440Z,34.25
2018-04-02T12:22:59.134Z,35.03
2018-04-02T12:25:28.193Z,36.44
2018-04-02T12:27:55.873Z,34.53
2018-04-02T12:30:23.560Z,36.98
2018-04-02T12:32:51.298Z,37.21
2018-04-02T12:35:18.979Z,36.37
2018-04-02T12:37:46.673Z,35.84
2018-04-02T12:40:14.431Z,33.89
2018-04-02T12:42:42.047Z,27.61
2018-04-02T12:45:09.696Z,28.33
2018-04-02T12:47:37.388Z,30.15
2018-04-02T12:50:05.014Z,28.59
2018-04-02T12:52:32.645Z,28.21
2018-04-02T12:55:00.258Z,29.41
2018-04-02T12:57:27.922Z,31.06
2018-04-02T12:59:55.529Z,28.34
2018-04-02T13:02:23.310Z,28.81
2018-04-02T13:04:51.014Z,27.53
2018-04-02T13:07:18.669Z,27.21
2018-04-02T13:09:46.273Z,29.84
2018-04-02T13:12:14.433Z,31.08
2018-04-02T13:14:42.088Z,31.79
2018-04-02T13:17:09.757Z,31.81
2018-04-02T13:19:37.399Z,28.25
2018-04-02T13:22:05.022Z,28.91
2018-04-02T13:24:32.700Z,33.21
2018-04-02T13:27:00.351Z,32.92
2018-04-02T13:29:27.936Z,30.67
2018-04-02T13:31:55.704Z,33.05
2018-04-02T13:34:23.393Z,31.52
2018-04-02T13:36:51.024Z,36.04
2018-04-02T13:39:18.662Z,32.79
2018-04-02T13:41:46.266Z,32.63
2018-04-02T13:44:14.015Z,33.92
2018-04-02T13:46:41.607Z,34.29
2018-04-02T13:49:11.518Z,33.83
2018-04-02T13:51:41.116Z,30.44
2018-04-02T13:54:10.446Z,32.89
2018-04-02T13:56:38.334Z,30.01
2018-04-02T13:59:06.205Z,32.44
2018-04-02T14:01:34.779Z,32.26
2018-04-02T14:04:02.851Z,31.75
2018-04-02T14:06:30.540Z,35.33
2018-04-02T14:08:58.220Z,34.25
2018-04-02T14:11:26.244Z,32.15
2018-04-02T14:13:53.916Z,35.16
2018-04-02T14:16:22.123Z,35.60
2018-04-02T14:18:49.897Z,36.50
2018-04-02T14:21:17.527Z,35.82
2018-04-02T14:23:45.160Z,36.16
2018-04-02T14:26:12.812Z,37.33
2018-04-02T14:28:40.482Z,36.69
2018-04-02T14:31:08.913Z,38.30
2018-04-02T14:33:36.534Z,37.86
2018-04-02T14:36:04.237Z,41.01
2018-04-02T14:38:31.872Z,39.05
2018-04-02T14:40:59.520Z,39.46
2018-04-02T14:43:27.131Z,38.10
2018-04-02T14:45:54.784Z,36.58
2018-04-02T14:48:22.433Z,37.00
2018-04-02T14:50:50.052Z,38.43
2018-04-02T14:53:17.641Z,38.64
2018-04-02T14:55:45.513Z,37.31
2018-04-02T14:58:14.129Z,39.15
2018-04-02T15:00:42.688Z,40.04
2018-04-02T15:03:10.355Z,40.75
2018-04-02T15:05:38.109Z,41.61
2018-04-02T15:08:06.164Z,41.30
2018-04-02T15:10:33.828Z,41.12
2018-04-02T15:13:01.736Z,44.11
2018-04-02T15:15:29.456Z,45.29
2018-04-02T15:17:57.100Z,43.85
2018-04-02T15:20:24.721Z,44.05
2018-04-02T15:22:52.449Z,45.31
2018-04-02T15:25:20.048Z,46.66
2018-04-02T15:27:47.710Z,45.68
2018-04-02T15:30:15.355Z,46.63
2018-04-02T15:32:43.000Z,47.65
2018-04-02T15:35:10.679Z,48.61
2018-04-02T15:37:38.394Z,48.21
2018-04-02T15:40:06.108Z,47.37
2018-04-02T15:42:34.903Z,46.16
2018-04-02T15:45:02.584Z,45.32
2018-04-02T15:47:30.503Z,47.79
2018-04-02T15:49:58.176Z,46.31
2018-04-02T15:52:25.830Z,47.90
2018-04-02T15:54:53.459Z,48.22
2018-04-02T15:57:21.090Z,50.78
2018-04-02T15:59:48.875Z,49.44
2018-04-02T16:02:16.585Z,50.26
2018-04-02T16:04:44.310Z,50.62
2018-04-02T16:07:11.959Z,52.75
2018-04-02T16:09:39.727Z,53.51
2018-04-02T16:12:08.144Z,52.49
2018-04-02T16:14:35.817Z,50.75
2018-04-02T16:17:03.525Z,54.61
2018-04-02T16:19:31.447Z,54.14
2018-04-02T16:21:59.134Z,53.21
2018-04-02T16:24:26.850Z,53.98
2018-04-02T16:26:54.945Z,53.82
2018-04-02T16:29:22.631Z,53.42
2018-04-02T16:31:50.300Z,53.93
2018-04-02T16:34:19.242Z,55.89
2018-04-02T16:36:47.839Z,58.84
2018-04-02T16:39:15.610Z,60.26
2018-04-02T16:41:43.262Z,58.60
2018-04-02T16:44:11.041Z,59.28
2018-04-02T16:46:38.841Z,58.54
2018-04-02T16:49:06.576Z,57.61
2018-04-02T16:51:34.258Z,57.97
2018-04-02T16:54:01.932Z,57.83
2018-04-02T16:56:29.637Z,57.66
2018-04-02T16:58:57.325Z,58.11
2018-04-02T17:01:24.994Z,59.95
2018-04-02T17:03:52.699Z,62.04
2018-04-02T17:06:20.377Z,62.69
2018-04-02T17:08:48.098Z,64.28
2018-04-02T17:11:15.837Z,64.25
2018-04-02T17:13:43.569Z,64.22
2018-04-02T17:16:12.537Z,64.74
2018-04-02T17:18:41.325Z,63.05
2018-04-02T17:21:09.063Z,61.99
2018-04-02T17:23:36.852Z,61.27
2018-04-02T17:26:05.764Z,61.82
2018-04-02T17:28:33.504Z,62.71
2018-04-02T17:31:01.357Z,63.06
2018-04-02T17:33:29.148Z,64.23
2018-04-02T17:35:57.220Z,63.27
2018-04-02T17:38:24.965Z,62.84
2018-04-02T17:40:52.718Z,64.78
2018-04-02T17:43:20.599Z,65.68
2018-04-02T17:45:48.570Z,65.25
2018-04-02T17:48:16.430Z,64.72
2018-04-02T17:50:44.204Z,64.30
2018-04-02T17:53:11.906Z,64.46
2018-04-02T17:55:39.826Z,65.96
2018-04-02T17:58:07.504Z,66.02
2018-04-02T18:00:35.174Z,66.65
2018-04-02T18:03:02.913Z,66.91
2018-04-02T18:05:30.619Z,67.57
2018-04-02T18:07:58.370Z,67.75
2018-04-02T18:10:26.610Z,67.44
2018-04-02T18:12:54.525Z,68.90
2018-04-02T18:15:22.334Z,67.88
2018-04-02T18:17:50.128Z,67.12
2018-04-02T18:20:19.433Z,67.24
2018-04-02T18:22:47.380Z,67.60
2018-04-02T18:25:15.187Z,67.69
2018-04-02T18:27:42.881Z,67.90
2018-04-02T18:30:12.027Z,68.27
2018-04-02T18:32:39.851Z,68.08
2018-04-02T18:35:07.548Z,68.26
2018-04-02T18:37:35.855Z,68.80
2018-04-02T18:40:04.456Z,70.12
2018-04-02T18:42:32.535Z,70.35
2018-04-02T18:45:01.641Z,70.56
2018-04-02T18:47:30.093Z,71.57
2018-04-02T18:49:57.883Z,71.08
2018-04-02T18:52:26.068Z,71.35
2018-04-02T18:54:55.350Z,71.97
2018-04-02T18:57:25.741Z,72.13
2018-04-02T18:59:53.463Z,72.32
2018-04-02T19:02:21.162Z,72.03
2018-04-02T19:04:49.183Z,71.85
2018-04-02T19:07:17.411Z,72.78
2018-04-02T19:09:45.482Z,71.91
2018-04-02T19:12:13.669Z,71.86
2018-04-02T19:14:42.670Z,71.51
2018-04-02T19:17:10.679Z,71.78
2018-04-02T19:19:39.984Z,71.61
2018-04-02T19:22:08.090Z,71.60
2018-04-02T19:24:36.878Z,71.72
2018-04-02T19:27:06.375Z,72.13
2018-04-02T19:29:34.835Z,72.79
2018-04-02T19:32:02.627Z,72.93
2018-04-02T19:34:30.259Z,73.70
2018-04-02T19:36:58.934Z,73.65
2018-04-02T19:39:26.571Z,74.76
2018-04-02T19:41:54.213Z,74.29
2018-04-02T19:44:22.001Z,74.75
2018-04-02T19:46:49.676Z,74.48
2018-04-02T19:49:17.491Z,74.31
2018-04-02T19:51:45.188Z,74.45
2018-04-02T19:54:12.906Z,75.22
2018-04-02T19:56:40.601Z,75.05
2018-04-02T19:59:08.249Z,75.99
2018-04-02T20:01:35.960Z,76.27
2018-04-02T20:04:04.501Z,76.25
2018-04-02T20:06:33.174Z,76.40
2018-04-02T20:09:00.841Z,76.55
2018-04-02T20:11:28.549Z,76.37
2018-04-02T20:13:56.229Z,76.37
2018-04-02T20:16:24.078Z,75.12
2018-04-02T20:18:51.780Z,75.61
2018-04-02T20:21:19.368Z,75.16
2018-04-02T20:23:47.064Z,75.86
2018-04-02T20:26:14.821Z,76.39
2018-04-02T20:28:42.449Z,76.42
2018-04-02T20:31:10.061Z,76.78
2018-04-02T20:33:37.719Z,76.96
2018-04-02T20:36:05.353Z,77.74
2018-04-02T20:38:33.028Z,78.39
2018-04-02T20:41:00.664Z,77.78
2018-04-02T20:43:28.356Z,77.91
2018-04-02T20:45:55.983Z,77.74
2018-04-02T20:48:23.660Z,78.01
2018-04-02T20:50:51.429Z,78.79
2018-04-02T20:53:19.957Z,78.43
2018-04-02T20:55:47.592Z,78.77
2018-04-02T20:58:15.304Z,78.50
2018-04-02T21:00:42.982Z,78.89
2018-04-02T21:03:10.700Z,78.19
2018-04-02T21:05:38.330Z,78.39
2018-04-02T21:08:05.979Z,77.65
2018-04-02T21:10:33.678Z,77.62
2018-04-02T21:13:01.312Z,78.05
2018-04-02T21:15:29.076Z,78.32
2018-04-02T21:17:56.719Z,78.70
2018-04-02T21:20:24.366Z,78.60
2018-04-02T21:22:52.100Z,78.41
2018-04-02T21:25:19.763Z,78.94
2018-04-02T21:27:47.423Z,79.13
2018-04-02T21:30:15.140Z,79.17
2018-04-02T21:32:43.428Z,79.72
2018-04-02T21:35:11.169Z,79.75
2018-04-02T21:37:38.867Z,79.74
2018-04-02T21:40:06.516Z,79.91
2018-04-02T21:42:34.204Z,79.95
2018-04-02T21:45:01.924Z,80.74
2018-04-02T21:47:29.625Z,80.89
2018-04-02T21:49:57.455Z,79.81
2018-04-02T21:52:25.156Z,80.23
2018-04-02T21:54:52.778Z,80.85
2018-04-02T21:57:20.433Z,80.56
2018-04-02T21:59:48.039Z,80.84
2018-04-02T22:02:15.838Z,80.08
2018-04-02T22:04:43.495Z,79.75
2018-04-02T22:07:11.180Z,80.43
2018-04-02T22:09:38.788Z,80.89
2018-04-02T22:12:06.470Z,80.77
2018-04-02T22:14:35.597Z,80.83
2018-04-02T22:17:04.197Z,80.67
2018-04-02T22:19:31.943Z,80.60
2018-04-02T22:21:59.817Z,80.37
2018-04-02T22:24:28.307Z,80.56
2018-04-02T22:26:56.175Z,80.32
2018-04-02T22:29:23.891Z,80.00
2018-04-02T22:31:52.310Z,80.92
2018-04-02T22:34:19.922Z,80.86
2018-04-02T22:36:47.845Z,81.50
2018-04-02T22:39:15.473Z,81.06
2018-04-02T22:41:43.544Z,81.01
2018-04-02T22:44:11.233Z,81.20
2018-04-02T22:46:38.844Z,81.53
2018-04-02T22:49:06.521Z,81.07
2018-04-02T22:51:34.126Z,81.35
2018-04-02T22:54:01.808Z,81.14
2018-04-02T22:56:29.447Z,80.92
2018-04-02T22:58:57.118Z,81.04
2018-04-02T23:01:24.813Z,81.06
2018-04-02T23:03:52.552Z,80.75
2018-04-02T23:06:20.236Z,81.15
2018-04-02T23:08:47.857Z,81.88
2018-04-02T23:11:15.574Z,81.93
2018-04-02T23:13:43.258Z,81.86
2018-04-02T23:16:11.268Z,81.31
2018-04-02T23:18:38.901Z,81.90
2018-04-02T23:21:06.500Z,82.27
2018-04-02T23:23:34.206Z,81.88
2018-04-02T23:26:01.885Z,82.62
2018-04-02T23:28:29.506Z,82.60
2018-04-02T23:30:57.158Z,82.53
2018-04-02T23:33:24.903Z,82.92
2018-04-02T23:35:52.927Z,83.24
2018-04-02T23:38:20.620Z,83.01
2018-04-02T23:40:48.225Z,83.07
2018-04-02T23:43:15.867Z,83.66
2018-04-02T23:45:43.446Z,83.95
2018-04-02T23:48:11.017Z,83.14
2018-04-02T23:50:38.681Z,82.80
2018-04-02T23:53:06.333Z,83.05
2018-04-02T23:55:33.970Z,82.55
2018-04-02T23:58:01.619Z,82.74
